createdAt,value
2024-02-18T00:02:22.043Z,89.57
2024-02-18T00:04:58.885Z,89.58
2024-02-18T00:07:32.730Z,89.64
2024-02-18T00:10:06.435Z,89.76
2024-02-18T00:12:42.226Z,89.65
2024-02-18T00:15:18.286Z,89.52
2024-02-18T00:17:49.552Z,89.09
2024-02-18T00:20:22.768Z,89.24
2024-02-18T00:22:54.044Z,89.12
2024-02-18T00:25:27.393Z,89.09
2024-02-18T00:28:01.061Z,89.07
2024-02-18T00:30:34.639Z,88.80
2024-02-18T00:33:10.183Z,88.86
2024-02-18T00:35:47.783Z,88.86
2024-02-18T00:38:29.112Z,88.93
2024-02-18T00:41:04.648Z,88.84
2024-02-18T00:43:40.331Z,88.94
2024-02-18T00:46:24.424Z,88.99
2024-02-18T00:49:09.305Z,89.12
2024-02-18T00:51:40.525Z,88.91
2024-02-18T00:54:11.716Z,89.04
2024-02-18T00:56:44.998Z,88.83
2024-02-18T00:59:18.426Z,88.95
2024-02-18T01:01:51.576Z,89.29
2024-02-18T01:04:27.361Z,89.09
2024-02-18T01:06:58.544Z,89.02
2024-02-18T01:09:31.870Z,89.24
2024-02-18T01:12:07.807Z,88.60
2024-02-18T01:14:38.853Z,88.78
2024-02-18T01:17:12.414Z,88.79
2024-02-18T01:19:43.800Z,88.62
2024-02-18T01:22:14.983Z,88.51
2024-02-18T01:24:50.611Z,88.20
2024-02-18T01:27:30.951Z,88.55
2024-02-18T01:30:07.064Z,88.54
2024-02-18T01:32:38.287Z,88.51
2024-02-18T01:35:09.837Z,88.35
2024-02-18T01:37:46.735Z,88.43
2024-02-18T01:40:20.008Z,88.07
2024-02-18T01:42:53.293Z,88.16
2024-02-18T01:45:24.544Z,88.12
2024-02-18T01:48:00.967Z,88.09
2024-02-18T01:50:33.159Z,88.09
2024-02-18T01:53:04.583Z,87.71
2024-02-18T01:55:38.258Z,88.04
2024-02-18T01:58:10.204Z,87.71
2024-02-18T02:00:41.916Z,87.90
2024-02-18T02:03:15.094Z,88.00
2024-02-18T02:05:51.915Z,87.48
2024-02-18T02:08:24.484Z,87.58
2024-02-18T02:10:58.200Z,87.72
2024-02-18T02:13:29.750Z,87.45
2024-02-18T02:16:03.514Z,87.50
2024-02-18T02:18:39.777Z,87.40
2024-02-18T02:21:15.666Z,87.27
2024-02-18T02:23:51.766Z,87.35
2024-02-18T02:26:27.311Z,87.12
2024-02-18T02:29:18.132Z,87.32
2024-02-18T02:34:30.406Z,87.04
2024-02-18T02:37:03.751Z,86.61
2024-02-18T02:39:37.416Z,86.93
2024-02-18T02:42:11.961Z,86.66
2024-02-18T02:44:43.083Z,86.81
2024-02-18T02:47:16.346Z,86.71
2024-02-18T02:49:47.623Z,86.76
2024-02-18T02:52:23.497Z,87.03
2024-02-18T02:54:56.567Z,86.80
2024-02-18T02:57:30.686Z,86.36
2024-02-18T03:00:10.680Z,87.05
2024-02-18T03:02:51.736Z,86.61
2024-02-18T03:05:22.931Z,86.60
2024-02-18T03:07:56.198Z,86.45
2024-02-18T03:10:34.659Z,86.36
2024-02-18T03:13:10.489Z,86.20
2024-02-18T03:15:41.670Z,86.39
2024-02-18T03:18:15.718Z,86.03
2024-02-18T03:20:52.445Z,86.23
2024-02-18T03:23:23.634Z,86.52
2024-02-18T03:25:57.365Z,86.45
2024-02-18T03:28:28.508Z,85.76
2024-02-18T03:31:02.120Z,85.93
2024-02-18T03:33:33.347Z,86.37
2024-02-18T03:36:06.869Z,85.96
2024-02-18T03:38:38.079Z,86.09
2024-02-18T03:41:10.219Z,86.21
2024-02-18T03:43:45.979Z,86.96
2024-02-18T03:46:19.304Z,86.61
2024-02-18T03:48:53.056Z,87.54
2024-02-18T03:51:28.959Z,87.48
2024-02-18T03:54:00.213Z,88.01
2024-02-18T03:56:38.873Z,87.88
2024-02-18T03:59:12.140Z,88.10
2024-02-18T04:01:45.682Z,88.80
2024-02-18T04:04:21.556Z,88.86
2024-02-18T04:07:01.879Z,89.78
2024-02-18T04:09:37.897Z,89.84
2024-02-18T04:12:11.465Z,90.56
2024-02-18T04:14:42.664Z,90.47
2024-02-18T04:17:13.794Z,91.23
2024-02-18T04:19:45.129Z,91.22
2024-02-18T04:22:19.439Z,91.45
2024-02-18T04:24:52.779Z,92.33
2024-02-18T04:27:26.402Z,91.86
2024-02-18T04:30:02.439Z,92.24
2024-02-18T04:32:33.588Z,92.51
2024-02-18T04:35:09.626Z,92.60
2024-02-18T04:37:43.196Z,92.94
2024-02-18T04:40:14.980Z,93.11
2024-02-18T04:42:48.276Z,92.77
2024-02-18T04:45:21.611Z,93.04
2024-02-18T04:47:57.549Z,93.47
2024-02-18T04:50:30.984Z,93.53
2024-02-18T04:53:04.196Z,93.56
2024-02-18T04:55:35.308Z,93.19
2024-02-18T04:58:06.596Z,93.54
2024-02-18T05:00:40.064Z,93.68
2024-02-18T05:03:13.933Z,93.73
2024-02-18T05:05:52.528Z,93.20
2024-02-18T05:08:26.087Z,94.14
2024-02-18T05:11:01.622Z,93.75
2024-02-18T05:13:34.860Z,93.70
2024-02-18T05:16:08.654Z,93.50
2024-02-18T05:18:50.779Z,93.62
2024-02-18T05:21:21.980Z,94.07
2024-02-18T05:24:00.792Z,93.26
2024-02-18T05:26:33.985Z,93.14
2024-02-18T05:29:12.288Z,93.84
2024-02-18T05:31:44.036Z,93.45
2024-02-18T05:34:22.875Z,92.82
2024-02-18T05:36:56.644Z,92.84
2024-02-18T05:39:29.853Z,92.85
2024-02-18T05:42:03.069Z,92.08
2024-02-18T05:44:41.169Z,92.56
2024-02-18T05:47:12.248Z,92.76
2024-02-18T05:49:47.954Z,92.62
2024-02-18T05:52:21.492Z,92.50
2024-02-18T05:54:57.482Z,92.78
2024-02-18T05:57:31.009Z,92.41
2024-02-18T06:00:04.297Z,92.74
2024-02-18T06:02:35.352Z,92.88
2024-02-18T06:05:13.727Z,93.50
2024-02-18T06:07:49.755Z,93.17
2024-02-18T06:10:25.733Z,93.42
2024-02-18T06:13:04.897Z,93.66
2024-02-18T06:15:38.987Z,93.68
2024-02-18T06:18:12.580Z,94.02
2024-02-18T06:20:45.308Z,93.95
2024-02-18T06:23:23.340Z,93.81
2024-02-18T06:25:59.805Z,94.50
2024-02-18T06:28:34.320Z,94.57
2024-02-18T06:31:13.714Z,94.48
2024-02-18T06:33:48.745Z,94.61
2024-02-18T06:36:26.528Z,94.74
2024-02-18T06:39:02.351Z,94.12
2024-02-18T06:41:37.995Z,94.51
2024-02-18T06:44:13.779Z,94.89
2024-02-18T06:46:45.215Z,94.89
2024-02-18T06:49:21.238Z,94.89
2024-02-18T06:51:52.453Z,94.41
2024-02-18T06:54:30.494Z,94.78
2024-02-18T06:57:04.256Z,95.14
2024-02-18T06:59:37.623Z,94.99
2024-02-18T07:02:09.172Z,94.98
2024-02-18T07:04:48.424Z,94.93
2024-02-18T07:07:21.997Z,94.81
2024-02-18T07:09:55.644Z,95.09
2024-02-18T07:12:30.571Z,95.26
2024-02-18T07:15:01.752Z,95.20
2024-02-18T07:17:35.275Z,95.15
2024-02-18T07:20:06.797Z,95.68
2024-02-18T07:22:38.002Z,95.50
2024-02-18T07:25:11.569Z,95.65
2024-02-18T07:27:44.804Z,95.34
2024-02-18T07:30:16.271Z,95.57
2024-02-18T07:32:49.901Z,95.76
2024-02-18T07:35:23.322Z,95.81
2024-02-18T07:37:57.247Z,96.11
2024-02-18T07:40:30.784Z,95.99
2024-02-18T07:43:02.065Z,95.92
2024-02-18T07:45:40.981Z,96.61
2024-02-18T07:48:14.973Z,96.56
2024-02-18T07:50:48.477Z,96.87
2024-02-18T07:53:20.156Z,96.83
2024-02-18T07:55:56.241Z,97.08
2024-02-18T07:58:29.394Z,96.93
2024-02-18T08:01:05.639Z,96.62
2024-02-18T08:03:36.846Z,96.82
2024-02-18T08:06:13.550Z,96.87
2024-02-18T08:08:45.044Z,97.03
2024-02-18T08:11:16.409Z,96.91
2024-02-18T08:13:47.479Z,97.19
2024-02-18T08:16:28.426Z,96.73
2024-02-18T08:18:59.720Z,96.68
2024-02-18T08:21:30.996Z,96.64
2024-02-18T08:24:04.486Z,97.15
2024-02-18T08:26:35.628Z,97.42
2024-02-18T08:29:11.296Z,97.39
2024-02-18T08:31:46.945Z,97.33
2024-02-18T08:34:21.394Z,97.32
2024-02-18T08:36:55.100Z,97.13
2024-02-18T08:39:29.663Z,97.53
2024-02-18T08:42:04.414Z,97.52
2024-02-18T08:44:37.543Z,97.67
2024-02-18T08:47:11.046Z,97.81
2024-02-18T08:49:47.799Z,98.36
2024-02-18T08:52:18.929Z,98.03
2024-02-18T08:54:52.240Z,98.23
2024-02-18T08:57:23.473Z,97.91
2024-02-18T08:59:57.051Z,98.15
2024-02-18T09:02:28.638Z,97.78
2024-02-18T09:05:02.309Z,98.20
2024-02-18T09:07:33.481Z,98.65
2024-02-18T09:10:09.478Z,98.44
2024-02-18T09:12:40.769Z,98.61
2024-02-18T09:15:14.130Z,98.67
2024-02-18T09:17:47.889Z,99.03
2024-02-18T09:20:23.325Z,99.60
2024-02-18T09:22:54.847Z,99.12
2024-02-18T09:25:28.727Z,99.54
2024-02-18T09:28:02.196Z,99.45
2024-02-18T09:30:35.626Z,98.71
2024-02-18T09:33:14.391Z,99.41
2024-02-18T09:35:47.889Z,99.14
2024-02-18T09:38:21.405Z,98.72
2024-02-18T09:40:55.761Z,98.20
2024-02-18T09:43:43.084Z,98.45
2024-02-18T09:46:20.609Z,98.39
2024-02-18T09:48:52.161Z,98.64
2024-02-18T09:51:26.753Z,98.77
2024-02-18T09:54:03.534Z,98.28
2024-02-18T09:56:39.783Z,98.65
2024-02-18T09:59:13.063Z,98.33
2024-02-18T10:01:44.790Z,98.49
2024-02-18T10:04:20.468Z,98.99
2024-02-18T10:06:53.725Z,99.48
2024-02-18T10:09:29.247Z,98.75
2024-02-18T10:12:00.917Z,99.72
2024-02-18T10:14:37.365Z,98.82
2024-02-18T10:17:13.237Z,99.24
2024-02-18T10:19:47.885Z,99.10
2024-02-18T10:22:21.596Z,99.73
2024-02-18T10:24:54.907Z,100.00
2024-02-18T10:27:26.681Z,99.42
2024-02-18T10:29:59.944Z,100.00
2024-02-18T10:32:31.776Z,99.23
2024-02-18T10:35:06.938Z,99.56
2024-02-18T10:37:44.269Z,99.46
2024-02-18T10:40:34.929Z,99.63
2024-02-18T10:43:11.264Z,98.46
2024-02-18T10:45:46.956Z,98.48
2024-02-18T10:48:21.284Z,98.17
2024-02-18T10:50:55.531Z,98.77
2024-02-18T10:53:52.039Z,98.57
2024-02-18T10:56:27.833Z,98.33
2024-02-18T10:59:07.933Z,98.63
2024-02-18T11:01:49.500Z,99.13
2024-02-18T11:04:24.115Z,99.30
2024-02-18T11:06:58.054Z,98.37
2024-02-18T11:09:33.418Z,99.29
2024-02-18T11:12:09.575Z,99.26
2024-02-18T11:14:42.139Z,99.15
2024-02-18T11:17:16.383Z,98.92
2024-02-18T11:19:49.266Z,98.27
2024-02-18T11:22:29.355Z,98.47
2024-02-18T11:25:05.369Z,98.50
2024-02-18T11:27:40.181Z,98.08
2024-02-18T11:30:12.248Z,98.16
2024-02-18T11:32:45.969Z,97.84
2024-02-18T11:35:21.738Z,98.18
2024-02-18T11:38:02.477Z,98.11
2024-02-18T11:40:36.708Z,98.29
2024-02-18T11:43:12.925Z,98.47
2024-02-18T11:46:00.995Z,98.52
2024-02-18T11:48:32.484Z,97.93
2024-02-18T11:51:03.675Z,98.37
2024-02-18T11:53:38.193Z,98.67
2024-02-18T11:56:15.914Z,98.35
2024-02-18T11:58:52.139Z,98.19
2024-02-18T12:01:28.093Z,98.23
2024-02-18T12:04:01.778Z,97.64
2024-02-18T12:06:35.035Z,98.10
2024-02-18T12:09:17.063Z,98.21
2024-02-18T12:11:50.491Z,98.45
2024-02-18T12:14:23.854Z,98.76
2024-02-18T12:16:55.193Z,98.62
2024-02-18T12:19:30.794Z,98.86
2024-02-18T12:22:06.789Z,97.88
2024-02-18T12:24:38.034Z,98.43
2024-02-18T12:27:16.789Z,98.28
2024-02-18T12:29:52.879Z,98.59
2024-02-18T12:32:26.340Z,98.66
2024-02-18T12:34:57.994Z,98.53
2024-02-18T12:37:36.855Z,98.73
2024-02-18T12:40:09.006Z,98.53
2024-02-18T12:42:55.449Z,98.75
2024-02-18T12:45:43.424Z,98.85
2024-02-18T12:48:23.428Z,98.60
2024-02-18T12:51:14.852Z,98.07
2024-02-18T12:53:50.852Z,98.99
2024-02-18T12:56:31.718Z,98.34
2024-02-18T12:59:05.913Z,98.74
2024-02-18T13:01:41.514Z,99.05
2024-02-18T13:04:13.012Z,98.71
2024-02-18T13:06:46.574Z,98.92
2024-02-18T13:09:26.449Z,99.12
2024-02-18T13:12:02.931Z,99.86
2024-02-18T13:14:43.246Z,99.45
2024-02-18T13:17:17.485Z,99.98
2024-02-18T13:19:51.238Z,100.00
2024-02-18T13:22:24.905Z,100.00
2024-02-18T13:25:02.829Z,100.00
2024-02-18T13:27:36.185Z,99.98
2024-02-18T13:30:07.935Z,100.00
2024-02-18T13:32:42.329Z,100.00
2024-02-18T13:35:18.318Z,100.00
2024-02-18T13:37:51.933Z,100.00
2024-02-18T13:40:28.269Z,100.00
2024-02-18T13:43:06.553Z,100.00
2024-02-18T13:45:38.964Z,100.00
2024-02-18T13:48:10.461Z,100.00
2024-02-18T13:50:46.539Z,100.00
2024-02-18T13:53:19.998Z,100.00
2024-02-18T13:55:51.123Z,100.00
2024-02-18T13:58:22.563Z,100.00
2024-02-18T14:00:58.609Z,100.00
2024-02-18T14:03:32.003Z,100.00
2024-02-18T14:06:05.690Z,100.00
2024-02-18T14:08:40.472Z,100.00
2024-02-18T14:11:13.742Z,100.00
2024-02-18T14:13:44.878Z,100.00
2024-02-18T14:16:16.084Z,100.00
2024-02-18T14:18:52.547Z,100.00
2024-02-18T14:21:31.247Z,100.00
2024-02-18T14:24:07.548Z,100.00
2024-02-18T14:26:43.160Z,100.00
2024-02-18T14:29:14.264Z,100.00
2024-02-18T14:31:47.959Z,100.00
2024-02-18T14:34:19.555Z,100.00
2024-02-18T14:36:53.972Z,100.00
2024-02-18T14:39:30.255Z,100.00
2024-02-18T14:42:01.404Z,100.00
2024-02-18T14:44:32.701Z,100.00
2024-02-18T14:47:06.247Z,100.00
2024-02-18T14:49:44.665Z,100.00
2024-02-18T14:52:18.819Z,100.00
2024-02-18T14:54:54.475Z,100.00
2024-02-18T14:57:25.700Z,100.00
2024-02-18T14:59:58.978Z,100.00
2024-02-18T15:02:30.804Z,100.00
2024-02-18T15:05:04.563Z,100.00
2024-02-18T15:07:35.819Z,100.00
2024-02-18T15:10:10.449Z,100.00
2024-02-18T15:12:47.018Z,100.00
2024-02-18T15:15:20.788Z,100.00
2024-02-18T15:17:54.211Z,100.00
2024-02-18T15:20:27.597Z,100.00
2024-02-18T15:23:00.889Z,100.00
2024-02-18T15:25:31.966Z,100.00
2024-02-18T15:28:10.064Z,100.00
2024-02-18T15:30:43.713Z,100.00
2024-02-18T15:33:17.125Z,99.55
2024-02-18T15:35:55.881Z,99.30
2024-02-18T15:38:33.677Z,99.17
2024-02-18T15:41:06.944Z,99.09
2024-02-18T15:43:44.722Z,98.49
2024-02-18T15:46:18.044Z,98.14
2024-02-18T15:48:52.611Z,98.38
2024-02-18T15:51:26.258Z,98.44
2024-02-18T15:53:59.558Z,98.37
2024-02-18T15:56:30.705Z,98.58
2024-02-18T15:59:01.955Z,98.61
2024-02-18T16:01:41.237Z,98.60
2024-02-18T16:04:12.485Z,98.49
2024-02-18T16:06:46.174Z,98.52
2024-02-18T16:09:19.528Z,98.56
2024-02-18T16:11:57.253Z,98.47
2024-02-18T16:14:28.692Z,98.46
2024-02-18T16:17:01.865Z,98.56
2024-02-18T16:19:35.326Z,97.99
2024-02-18T16:22:09.089Z,97.92
2024-02-18T16:24:40.518Z,97.78
2024-02-18T16:27:12.221Z,97.56
2024-02-18T16:29:45.365Z,97.36
2024-02-18T16:32:18.826Z,97.26
2024-02-18T16:34:54.658Z,97.18
2024-02-18T16:37:28.560Z,96.26
2024-02-18T16:40:04.566Z,96.53
2024-02-18T16:42:40.024Z,96.16
2024-02-18T16:45:14.016Z,95.29
2024-02-18T16:47:50.352Z,95.37
2024-02-18T16:50:23.930Z,95.00
2024-02-18T16:52:55.060Z,93.95
2024-02-18T16:55:26.177Z,94.58
2024-02-18T16:58:04.513Z,94.89
2024-02-18T17:00:40.378Z,94.30
2024-02-18T17:03:16.169Z,95.20
2024-02-18T17:05:54.459Z,94.50
2024-02-18T17:08:26.457Z,94.55
2024-02-18T17:10:59.874Z,94.21
2024-02-18T17:13:35.915Z,94.30
2024-02-18T17:16:11.708Z,93.93
2024-02-18T17:18:45.089Z,94.48
2024-02-18T17:21:19.877Z,94.01
2024-02-18T17:23:53.034Z,94.38
2024-02-18T17:26:24.230Z,93.76
2024-02-18T17:28:55.364Z,94.30
2024-02-18T17:31:29.392Z,94.07
2024-02-18T17:34:04.051Z,94.06
2024-02-18T17:36:37.370Z,93.55
2024-02-18T17:39:10.786Z,93.81
2024-02-18T17:41:44.061Z,93.18
2024-02-18T17:44:15.172Z,92.80
2024-02-18T17:46:48.615Z,92.90
2024-02-18T17:49:22.533Z,93.30
2024-02-18T17:51:56.275Z,93.67
2024-02-18T17:54:29.656Z,93.64
2024-02-18T17:57:00.808Z,94.01
2024-02-18T17:59:33.971Z,94.07
2024-02-18T18:02:07.399Z,94.28
2024-02-18T18:04:41.137Z,94.35
2024-02-18T18:07:15.034Z,94.80
2024-02-18T18:09:49.196Z,95.24
2024-02-18T18:12:24.874Z,95.81
2024-02-18T18:14:58.333Z,96.02
2024-02-18T18:17:32.142Z,96.42
2024-02-18T18:20:05.091Z,96.72
2024-02-18T18:22:36.760Z,97.04
2024-02-18T18:25:16.389Z,97.09
2024-02-18T18:27:50.034Z,97.66
2024-02-18T18:30:21.407Z,97.75
2024-02-18T18:32:57.462Z,98.00
2024-02-18T18:35:30.902Z,98.27
2024-02-18T18:38:04.393Z,98.34
2024-02-18T18:40:38.051Z,98.49
2024-02-18T18:43:11.755Z,98.37
2024-02-18T18:45:45.393Z,98.35
2024-02-18T18:48:19.423Z,98.43
2024-02-18T18:50:50.660Z,97.90
2024-02-18T18:53:27.447Z,97.72
2024-02-18T18:56:00.799Z,97.92
2024-02-18T18:58:36.768Z,98.02
2024-02-18T19:01:08.106Z,97.76
2024-02-18T19:03:44.252Z,97.81
2024-02-18T19:06:21.790Z,97.54
2024-02-18T19:08:55.458Z,97.82
2024-02-18T19:11:26.691Z,97.59
2024-02-18T19:14:00.400Z,97.32
2024-02-18T19:16:42.776Z,96.92
2024-02-18T19:19:21.067Z,96.89
2024-02-18T19:21:56.117Z,96.89
2024-02-18T19:24:33.109Z,96.91
2024-02-18T19:27:06.519Z,97.26
2024-02-18T19:29:37.564Z,96.81
2024-02-18T19:32:09.089Z,97.06
2024-02-18T19:34:42.527Z,96.56
2024-02-18T19:37:16.430Z,96.48
2024-02-18T19:39:52.460Z,96.72
2024-02-18T19:42:23.713Z,97.12
2024-02-18T19:44:54.855Z,97.09
2024-02-18T19:47:32.753Z,97.09
2024-02-18T19:50:06.646Z,97.09
2024-02-18T19:52:40.093Z,96.96
2024-02-18T19:55:13.549Z,97.34
2024-02-18T19:57:51.292Z,97.21
2024-02-18T20:00:27.640Z,97.48
2024-02-18T20:03:04.570Z,97.53
2024-02-18T20:05:41.998Z,97.43
2024-02-18T20:08:18.644Z,97.50
2024-02-18T20:10:52.746Z,97.39
2024-02-18T20:13:32.450Z,97.35
2024-02-18T20:16:05.360Z,97.41
2024-02-18T20:18:43.995Z,97.21
2024-02-18T20:21:23.234Z,97.08
2024-02-18T20:23:59.328Z,97.06
2024-02-18T20:26:32.646Z,97.40
2024-02-18T20:29:08.061Z,97.20
2024-02-18T20:31:39.600Z,97.26
2024-02-18T20:34:15.199Z,97.17
2024-02-18T20:36:50.820Z,97.32
2024-02-18T20:39:26.673Z,97.65
2024-02-18T20:41:59.998Z,97.53
2024-02-18T20:44:36.071Z,97.63
2024-02-18T20:47:11.234Z,97.73
2024-02-18T20:49:45.496Z,97.62
2024-02-18T20:52:19.825Z,97.53
2024-02-18T20:54:57.335Z,97.77
2024-02-18T20:57:30.149Z,97.66
2024-02-18T21:00:07.922Z,97.78
2024-02-18T21:02:43.818Z,97.98
2024-02-18T21:05:17.806Z,97.81
2024-02-18T21:07:53.658Z,97.79
2024-02-18T21:10:27.351Z,97.86
2024-02-18T21:13:03.177Z,98.08
2024-02-18T21:15:34.445Z,97.92
2024-02-18T21:18:05.826Z,97.95
2024-02-18T21:20:36.925Z,98.17
2024-02-18T21:23:10.501Z,98.33
2024-02-18T21:25:46.400Z,98.46
2024-02-18T21:28:20.320Z,98.23
2024-02-18T21:30:51.659Z,97.72
2024-02-18T21:33:25.178Z,97.88
2024-02-18T21:35:59.491Z,97.57
2024-02-18T21:38:35.324Z,97.73
2024-02-18T21:41:08.611Z,97.60
2024-02-18T21:43:39.680Z,97.20
2024-02-18T21:46:14.086Z,97.01
2024-02-18T21:48:47.517Z,97.04
2024-02-18T21:51:21.114Z,96.84
2024-02-18T21:53:56.550Z,96.98
2024-02-18T21:56:30.042Z,96.59
2024-02-18T21:59:03.736Z,96.69
2024-02-18T22:01:40.033Z,96.69
2024-02-18T22:04:13.831Z,96.96
2024-02-18T22:06:59.946Z,96.70
2024-02-18T22:09:40.650Z,96.49
2024-02-18T22:12:14.061Z,96.41
2024-02-18T22:14:49.816Z,96.63
2024-02-18T22:17:21.003Z,96.64
2024-02-18T22:19:52.670Z,96.45
2024-02-18T22:22:24.032Z,96.36
2024-02-18T22:24:55.297Z,96.10
2024-02-18T22:27:33.292Z,95.87
2024-02-18T22:30:18.905Z,95.92
2024-02-18T22:32:50.034Z,96.14
2024-02-18T22:35:21.246Z,96.04
2024-02-18T22:37:52.345Z,95.80
2024-02-18T22:40:25.833Z,95.88
2024-02-18T22:43:01.649Z,95.70
2024-02-18T22:45:32.905Z,95.36
2024-02-18T22:48:08.848Z,95.48
2024-02-18T22:50:42.438Z,95.66
2024-02-18T22:53:13.560Z,95.91
2024-02-18T22:55:49.239Z,95.42
2024-02-18T22:58:20.911Z,95.33
2024-02-18T23:01:01.906Z,95.79
2024-02-18T23:03:35.516Z,95.52
2024-02-18T23:06:07.346Z,95.54
2024-02-18T23:08:41.407Z,95.41
2024-02-18T23:11:13.496Z,95.59
2024-02-18T23:13:44.671Z,95.50
2024-02-18T23:16:16.206Z,95.02
2024-02-18T23:18:47.580Z,94.93
2024-02-18T23:21:21.272Z,95.19
2024-02-18T23:24:00.520Z,95.01
2024-02-18T23:26:33.880Z,94.69
2024-02-18T23:29:07.130Z,94.74
2024-02-18T23:31:42.817Z,94.59
2024-02-18T23:34:16.510Z,94.63
2024-02-18T23:36:54.394Z,94.84
2024-02-18T23:39:30.816Z,94.63
2024-02-18T23:42:06.250Z,94.65
2024-02-18T23:44:39.594Z,94.41
2024-02-18T23:47:12.914Z,94.55
2024-02-18T23:49:51.778Z,94.58
2024-02-18T23:52:25.473Z,94.77
2024-02-18T23:55:00.286Z,94.64
2024-02-18T23:57:31.509Z,95.06
